sensor_id;sensor_type;location;lat;lon;timestamp;P1;durP1;ratioP1;P2;durP2;ratioP2
31095;SDS011;17749;51.962;8.560;2023-12-04T06:04:03;16.40;;;8.82;;
31095;SDS011;17749;51.962;8.560;2023-12-04T06:06:30;16.73;;;8.80;;
31095;SDS011;17749;51.962;8.560;2023-12-04T06:08:57;14.80;;;7.90;;
31095;SDS011;17749;51.962;8.560;2023-12-04T06:11:24;15.45;;;8.15;;
31095;SDS011;17749;51.962;8.560;2023-12-04T06:13:51;18.85;;;8.45;;
31095;SDS011;17749;51.962;8.560;2023-12-04T06:16:19;17.77;;;7.95;;
31095;SDS011;17749;51.962;8.560;2023-12-04T06:19:27;16.17;;;8.68;;
31095;SDS011;17749;51.962;8.560;2023-12-04T06:22:10;20.38;;;8.35;;
31095;SDS011;17749;51.962;8.560;2023-12-04T06:24:52;20.90;;;9.23;;
31095;SDS011;17749;51.962;8.560;2023-12-04T06:27:58;20.80;;;9.13;;
31095;SDS011;17749;51.962;8.560;2023-12-04T06:31:04;17.50;;;8.85;;
31095;SDS011;17749;51.962;8.560;2023-12-04T06:33:46;17.13;;;8.02;;
31095;SDS011;17749;51.962;8.560;2023-12-04T06:36:27;19.65;;;8.25;;
31095;SDS011;17749;51.962;8.560;2023-12-04T06:39:23;17.48;;;8.75;;
31095;SDS011;17749;51.962;8.560;2023-12-04T06:42:07;16.48;;;7.22;;
31095;SDS011;17749;51.962;8.560;2023-12-04T06:44:49;18.85;;;8.48;;
31095;SDS011;17749;51.962;8.560;2023-12-04T06:47:30;19.85;;;10.38;;
31095;SDS011;17749;51.962;8.560;2023-12-04T06:50:13;19.17;;;8.70;;
31095;SDS011;17749;51.962;8.560;2023-12-04T06:52:54;15.35;;;7.55;;
31095;SDS011;17749;51.962;8.560;2023-12-04T06:55:36;17.63;;;7.75;;
31095;SDS011;17749;51.962;8.560;2023-12-04T06:58:18;16.42;;;7.53;;
31095;SDS011;17749;51.962;8.560;2023-12-04T07:01:27;17.25;;;8.30;;
31095;SDS011;17749;51.962;8.560;2023-12-04T07:04:08;14.90;;;7.93;;
31095;SDS011;17749;51.962;8.560;2023-12-04T07:06:52;18.33;;;8.52;;
31095;SDS011;17749;51.962;8.560;2023-12-04T07:09:58;15.93;;;8.05;;
31095;SDS011;17749;51.962;8.560;2023-12-04T07:13:04;14.98;;;8.30;;
31095;SDS011;17749;51.962;8.560;2023-12-04T07:16:11;14.88;;;7.55;;
31095;SDS011;17749;51.962;8.560;2023-12-04T07:18:52;16.25;;;7.70;;
31095;SDS011;17749;51.962;8.560;2023-12-04T07:21:58;19.27;;;9.45;;
31095;SDS011;17749;51.962;8.560;2023-12-04T07:24:39;17.02;;;8.45;;
31095;SDS011;17749;51.962;8.560;2023-12-04T07:27:46;18.98;;;8.65;;
31095;SDS011;17749;51.962;8.560;2023-12-04T07:30:30;18.25;;;7.55;;
31095;SDS011;17749;51.962;8.560;2023-12-04T07:33:12;14.15;;;8.65;;
31095;SDS011;17749;51.962;8.560;2023-12-04T07:36:23;13.15;;;7.90;;
31095;SDS011;17749;51.962;8.560;2023-12-04T07:39:08;18.25;;;8.63;;
31095;SDS011;17749;51.962;8.560;2023-12-04T07:41:53;15.93;;;8.10;;
31095;SDS011;17749;51.962;8.560;2023-12-04T07:44:37;16.33;;;8.60;;
31095;SDS011;17749;51.962;8.560;2023-12-04T07:47:43;14.98;;;8.23;;
31095;SDS011;17749;51.962;8.560;2023-12-04T07:50:29;15.63;;;7.60;;
31095;SDS011;17749;51.962;8.560;2023-12-04T07:53:10;16.73;;;7.10;;
31095;SDS011;17749;51.962;8.560;2023-12-04T07:56:03;14.35;;;8.57;;
31095;SDS011;17749;51.962;8.560;2023-12-04T07:58:46;13.18;;;7.40;;
31095;SDS011;17749;51.962;8.560;2023-12-04T08:04:36;19.00;;;7.65;;
31095;SDS011;17749;51.962;8.560;2023-12-04T08:07:26;21.35;;;9.75;;
31095;SDS011;17749;51.962;8.560;2023-12-04T08:12:37;19.23;;;8.35;;
31095;SDS011;17749;51.962;8.560;2023-12-04T08:15:18;17.13;;;8.32;;
31095;SDS011;17749;51.962;8.560;2023-12-04T08:17:59;18.17;;;7.57;;
31095;SDS011;17749;51.962;8.560;2023-12-04T08:20:45;13.70;;;7.55;;
31095;SDS011;17749;51.962;8.560;2023-12-04T08:23:33;14.70;;;7.88;;
31095;SDS011;17749;51.962;8.560;2023-12-04T08:26:20;17.63;;;7.28;;
31095;SDS011;17749;51.962;8.560;2023-12-04T08:29:04;14.43;;;6.85;;
31095;SDS011;17749;51.962;8.560;2023-12-04T08:32:10;17.65;;;8.95;;
31095;SDS011;17749;51.962;8.560;2023-12-04T08:35:16;15.27;;;7.45;;
31095;SDS011;17749;51.962;8.560;2023-12-04T08:38:02;13.73;;;7.40;;
31095;SDS011;17749;51.962;8.560;2023-12-04T08:43:54;15.80;;;7.55;;
31095;SDS011;17749;51.962;8.560;2023-12-04T08:46:22;16.58;;;7.88;;
31095;SDS011;17749;51.962;8.560;2023-12-04T08:48:49;17.75;;;7.82;;
31095;SDS011;17749;51.962;8.560;2023-12-04T08:51:16;13.85;;;7.07;;
31095;SDS011;17749;51.962;8.560;2023-12-04T08:53:44;19.45;;;9.15;;
31095;SDS011;17749;51.962;8.560;2023-12-04T08:56:11;15.65;;;7.45;;
31095;SDS011;17749;51.962;8.560;2023-12-04T08:58:47;20.80;;;9.07;;
31095;SDS011;17749;51.962;8.560;2023-12-04T09:01:17;12.65;;;6.85;;
31095;SDS011;17749;51.962;8.560;2023-12-04T09:03:44;16.42;;;7.40;;
31095;SDS011;17749;51.962;8.560;2023-12-04T09:06:11;18.20;;;7.95;;
31095;SDS011;17749;51.962;8.560;2023-12-04T09:08:38;14.27;;;7.05;;
31095;SDS011;17749;51.962;8.560;2023-12-04T09:11:15;14.27;;;7.50;;
31095;SDS011;17749;51.962;8.560;2023-12-04T09:13:49;14.98;;;7.18;;
31095;SDS011;17749;51.962;8.560;2023-12-04T09:16:16;15.75;;;7.25;;
31095;SDS011;17749;51.962;8.560;2023-12-04T09:18:43;14.98;;;7.35;;
31095;SDS011;17749;51.962;8.560;2023-12-04T09:21:10;14.48;;;7.50;;
31095;SDS011;17749;51.962;8.560;2023-12-04T09:23:37;14.45;;;7.47;;
31095;SDS011;17749;51.962;8.560;2023-12-04T09:26:05;15.85;;;8.00;;
31095;SDS011;17749;51.962;8.560;2023-12-04T09:28:32;16.60;;;7.75;;
31095;SDS011;17749;51.962;8.560;2023-12-04T09:30:59;12.55;;;7.13;;
31095;SDS011;17749;51.962;8.560;2023-12-04T09:33:26;12.85;;;6.45;;
31095;SDS011;17749;51.962;8.560;2023-12-04T09:35:53;14.13;;;6.93;;
31095;SDS011;17749;51.962;8.560;2023-12-04T09:38:20;13.95;;;7.53;;
31095;SDS011;17749;51.962;8.560;2023-12-04T09:40:48;14.35;;;7.13;;
31095;SDS011;17749;51.962;8.560;2023-12-04T09:43:16;14.45;;;7.50;;
31095;SDS011;17749;51.962;8.560;2023-12-04T09:45:45;16.52;;;7.07;;
31095;SDS011;17749;51.962;8.560;2023-12-04T09:48:13;16.40;;;7.38;;
31095;SDS011;17749;51.962;8.560;2023-12-04T09:50:40;15.40;;;7.72;;
31095;SDS011;17749;51.962;8.560;2023-12-04T09:53:10;15.07;;;7.78;;
31095;SDS011;17749;51.962;8.560;2023-12-04T09:58:04;28.45;;;9.18;;
31095;SDS011;17749;51.962;8.560;2023-12-04T10:00:32;12.88;;;7.20;;
31095;SDS011;17749;51.962;8.560;2023-12-04T10:03:00;15.55;;;7.13;;
31095;SDS011;17749;51.962;8.560;2023-12-04T10:05:28;15.15;;;8.00;;
31095;SDS011;17749;51.962;8.560;2023-12-04T10:07:55;15.05;;;7.22;;
31095;SDS011;17749;51.962;8.560;2023-12-04T10:10:22;23.52;;;7.75;;
31095;SDS011;17749;51.962;8.560;2023-12-04T10:12:50;17.45;;;8.13;;
31095;SDS011;17749;51.962;8.560;2023-12-04T10:15:18;14.57;;;7.53;;
31095;SDS011;17749;51.962;8.560;2023-12-04T10:17:45;15.52;;;7.53;;
31095;SDS011;17749;51.962;8.560;2023-12-04T10:20:13;13.27;;;7.47;;
31095;SDS011;17749;51.962;8.560;2023-12-04T10:25:21;17.85;;;8.52;;
31095;SDS011;17749;51.962;8.560;2023-12-04T10:30:24;18.45;;;7.57;;
31095;SDS011;17749;51.962;8.560;2023-12-04T10:32:55;12.52;;;6.07;;
31095;SDS011;17749;51.962;8.560;2023-12-04T10:35:31;16.13;;;7.22;;
31095;SDS011;17749;51.962;8.560;2023-12-04T10:37:59;14.88;;;6.90;;
31095;SDS011;17749;51.962;8.560;2023-12-04T10:40:27;14.18;;;6.80;;
31095;SDS011;17749;51.962;8.560;2023-12-04T10:45:37;15.30;;;6.85;;
31095;SDS011;17749;51.962;8.560;2023-12-04T10:48:06;17.15;;;7.65;;
31095;SDS011;17749;51.962;8.560;2023-12-04T10:50:34;14.90;;;7.43;;
31095;SDS011;17749;51.962;8.560;2023-12-04T10:53:08;15.57;;;7.15;;
31095;SDS011;17749;51.962;8.560;2023-12-04T10:55:37;13.30;;;6.75;;
31095;SDS011;17749;51.962;8.560;2023-12-04T10:58:08;12.57;;;6.53;;
31095;SDS011;17749;51.962;8.560;2023-12-04T11:00:41;15.32;;;7.05;;
31095;SDS011;17749;51.962;8.560;2023-12-04T11:03:18;18.42;;;7.45;;
31095;SDS011;17749;51.962;8.560;2023-12-04T11:05:59;16.48;;;8.02;;
31095;SDS011;17749;51.962;8.560;2023-12-04T11:08:28;16.35;;;7.38;;
31095;SDS011;17749;51.962;8.560;2023-12-04T11:11:03;12.90;;;7.40;;
31095;SDS011;17749;51.962;8.560;2023-12-04T11:13:35;19.17;;;7.57;;
31095;SDS011;17749;51.962;8.560;2023-12-04T11:18:43;14.02;;;7.05;;
31095;SDS011;17749;51.962;8.560;2023-12-04T11:21:15;13.15;;;7.93;;
31095;SDS011;17749;51.962;8.560;2023-12-04T11:23:47;12.18;;;6.25;;
31095;SDS011;17749;51.962;8.560;2023-12-04T11:26:14;15.80;;;7.95;;
31095;SDS011;17749;51.962;8.560;2023-12-04T11:28:42;14.02;;;7.05;;
31095;SDS011;17749;51.962;8.560;2023-12-04T11:31:10;15.98;;;7.68;;
31095;SDS011;17749;51.962;8.560;2023-12-04T11:33:38;12.98;;;6.47;;
31095;SDS011;17749;51.962;8.560;2023-12-04T11:36:09;13.40;;;6.35;;
31095;SDS011;17749;51.962;8.560;2023-12-04T11:38:43;12.95;;;6.75;;
31095;SDS011;17749;51.962;8.560;2023-12-04T11:41:22;13.00;;;6.53;;
31095;SDS011;17749;51.962;8.560;2023-12-04T11:43:56;12.27;;;6.47;;
31095;SDS011;17749;51.962;8.560;2023-12-04T11:46:25;12.20;;;5.90;;
31095;SDS011;17749;51.962;8.560;2023-12-04T11:48:57;11.40;;;5.85;;
31095;SDS011;17749;51.962;8.560;2023-12-04T11:54:20;10.82;;;5.43;;
31095;SDS011;17749;51.962;8.560;2023-12-04T11:57:19;11.48;;;5.47;;
31095;SDS011;17749;51.962;8.560;2023-12-04T11:59:39;11.90;;;6.10;;
31095;SDS011;17749;51.962;8.560;2023-12-04T12:02:07;9.98;;;5.65;;
31095;SDS011;17749;51.962;8.560;2023-12-04T12:04:35;11.27;;;5.43;;
31095;SDS011;17749;51.962;8.560;2023-12-04T12:07:04;13.07;;;5.68;;
31095;SDS011;17749;51.962;8.560;2023-12-04T12:09:32;10.30;;;5.47;;
31095;SDS011;17749;51.962;8.560;2023-12-04T12:12:01;12.82;;;6.15;;
31095;SDS011;17749;51.962;8.560;2023-12-04T12:14:29;11.70;;;5.05;;
31095;SDS011;17749;51.962;8.560;2023-12-04T12:17:00;10.73;;;6.28;;
31095;SDS011;17749;51.962;8.560;2023-12-04T12:19:30;11.45;;;5.95;;
31095;SDS011;17749;51.962;8.560;2023-12-04T12:21:57;11.35;;;6.43;;
31095;SDS011;17749;51.962;8.560;2023-12-04T12:24:24;11.30;;;5.90;;
31095;SDS011;17749;51.962;8.560;2023-12-04T12:26:53;9.05;;;5.50;;
31095;SDS011;17749;51.962;8.560;2023-12-04T12:29:22;12.95;;;5.88;;
31095;SDS011;17749;51.962;8.560;2023-12-04T12:31:49;12.43;;;5.80;;
31095;SDS011;17749;51.962;8.560;2023-12-04T12:34:18;11.48;;;6.15;;
31095;SDS011;17749;51.962;8.560;2023-12-04T12:36:45;13.68;;;6.45;;
31095;SDS011;17749;51.962;8.560;2023-12-04T12:39:12;12.68;;;5.70;;
31095;SDS011;17749;51.962;8.560;2023-12-04T12:44:17;13.57;;;6.53;;
31095;SDS011;17749;51.962;8.560;2023-12-04T12:46:47;14.60;;;5.80;;
31095;SDS011;17749;51.962;8.560;2023-12-04T12:49:17;12.02;;;5.97;;
31095;SDS011;17749;51.962;8.560;2023-12-04T12:52:02;14.25;;;6.55;;
31095;SDS011;17749;51.962;8.560;2023-12-04T12:54:31;14.10;;;6.18;;
31095;SDS011;17749;51.962;8.560;2023-12-04T12:57:00;12.30;;;6.05;;
31095;SDS011;17749;51.962;8.560;2023-12-04T12:59:28;10.75;;;6.03;;
31095;SDS011;17749;51.962;8.560;2023-12-04T13:01:56;12.77;;;6.45;;
31095;SDS011;17749;51.962;8.560;2023-12-04T13:04:37;11.77;;;5.93;;
31095;SDS011;17749;51.962;8.560;2023-12-04T13:07:05;9.85;;;5.57;;
31095;SDS011;17749;51.962;8.560;2023-12-04T13:09:33;10.40;;;5.50;;
31095;SDS011;17749;51.962;8.560;2023-12-04T13:12:06;11.13;;;6.00;;
31095;SDS011;17749;51.962;8.560;2023-12-04T13:14:34;11.95;;;6.03;;
31095;SDS011;17749;51.962;8.560;2023-12-04T13:17:04;9.88;;;5.40;;
31095;SDS011;17749;51.962;8.560;2023-12-04T13:19:33;9.98;;;5.97;;
31095;SDS011;17749;51.962;8.560;2023-12-04T13:22:01;10.20;;;5.95;;
31095;SDS011;17749;51.962;8.560;2023-12-04T13:24:31;20.42;;;6.80;;
31095;SDS011;17749;51.962;8.560;2023-12-04T13:26:58;14.32;;;5.70;;
31095;SDS011;17749;51.962;8.560;2023-12-04T13:29:25;10.80;;;5.80;;
31095;SDS011;17749;51.962;8.560;2023-12-04T13:31:52;13.60;;;6.50;;
31095;SDS011;17749;51.962;8.560;2023-12-04T13:34:20;11.73;;;6.50;;
31095;SDS011;17749;51.962;8.560;2023-12-04T13:36:47;11.10;;;6.05;;
31095;SDS011;17749;51.962;8.560;2023-12-04T13:39:14;11.98;;;5.85;;
31095;SDS011;17749;51.962;8.560;2023-12-04T13:41:46;8.57;;;5.43;;
31095;SDS011;17749;51.962;8.560;2023-12-04T13:44:31;10.75;;;5.72;;
31095;SDS011;17749;51.962;8.560;2023-12-04T13:47:00;10.18;;;5.72;;
31095;SDS011;17749;51.962;8.560;2023-12-04T13:49:27;10.77;;;5.78;;
31095;SDS011;17749;51.962;8.560;2023-12-04T13:51:54;12.02;;;5.50;;
31095;SDS011;17749;51.962;8.560;2023-12-04T13:54:22;10.63;;;6.40;;
31095;SDS011;17749;51.962;8.560;2023-12-04T13:57:01;12.18;;;6.47;;
31095;SDS011;17749;51.962;8.560;2023-12-04T13:59:30;10.93;;;6.03;;
31095;SDS011;17749;51.962;8.560;2023-12-04T14:02:00;10.75;;;6.15;;
31095;SDS011;17749;51.962;8.560;2023-12-04T14:04:29;13.40;;;6.68;;
31095;SDS011;17749;51.962;8.560;2023-12-04T14:06:57;12.75;;;6.95;;
31095;SDS011;17749;51.962;8.560;2023-12-04T14:09:28;13.52;;;5.63;;
31095;SDS011;17749;51.962;8.560;2023-12-04T14:11:56;11.20;;;5.55;;
31095;SDS011;17749;51.962;8.560;2023-12-04T14:14:23;13.05;;;6.18;;
31095;SDS011;17749;51.962;8.560;2023-12-04T14:16:50;12.50;;;5.50;;
31095;SDS011;17749;51.962;8.560;2023-12-04T14:19:17;11.27;;;6.40;;
31095;SDS011;17749;51.962;8.560;2023-12-04T14:21:48;10.18;;;5.82;;
31095;SDS011;17749;51.962;8.560;2023-12-04T14:24:15;11.20;;;5.20;;
31095;SDS011;17749;51.962;8.560;2023-12-04T14:26:42;11.98;;;5.72;;
31095;SDS011;17749;51.962;8.560;2023-12-04T14:29:09;11.77;;;5.57;;
31095;SDS011;17749;51.962;8.560;2023-12-04T14:31:37;14.75;;;6.18;;
31095;SDS011;17749;51.962;8.560;2023-12-04T14:34:04;11.98;;;5.45;;
31095;SDS011;17749;51.962;8.560;2023-12-04T14:36:31;14.00;;;6.85;;
31095;SDS011;17749;51.962;8.560;2023-12-04T14:38:58;15.05;;;6.22;;
31095;SDS011;17749;51.962;8.560;2023-12-04T14:41:27;12.27;;;5.95;;
31095;SDS011;17749;51.962;8.560;2023-12-04T14:43:54;15.27;;;5.95;;
31095;SDS011;17749;51.962;8.560;2023-12-04T14:46:22;11.82;;;5.57;;
31095;SDS011;17749;51.962;8.560;2023-12-04T14:48:49;12.68;;;6.20;;
31095;SDS011;17749;51.962;8.560;2023-12-04T14:51:16;12.02;;;6.07;;
31095;SDS011;17749;51.962;8.560;2023-12-04T14:53:43;12.02;;;6.15;;
31095;SDS011;17749;51.962;8.560;2023-12-04T14:56:17;15.63;;;7.38;;
31095;SDS011;17749;51.962;8.560;2023-12-04T14:59:02;15.63;;;8.98;;
31095;SDS011;17749;51.962;8.560;2023-12-04T15:01:32;18.35;;;8.07;;
31095;SDS011;17749;51.962;8.560;2023-12-04T15:04:02;13.00;;;7.05;;
31095;SDS011;17749;51.962;8.560;2023-12-04T15:06:48;12.45;;;6.85;;
31095;SDS011;17749;51.962;8.560;2023-12-04T15:09:53;15.15;;;6.80;;
31095;SDS011;17749;51.962;8.560;2023-12-04T15:12:35;11.18;;;6.07;;
31095;SDS011;17749;51.962;8.560;2023-12-04T15:15:22;11.75;;;6.75;;
31095;SDS011;17749;51.962;8.560;2023-12-04T15:18:15;15.13;;;7.20;;
31095;SDS011;17749;51.962;8.560;2023-12-04T15:21:01;13.68;;;6.80;;
31095;SDS011;17749;51.962;8.560;2023-12-04T15:23:29;11.73;;;7.15;;
31095;SDS011;17749;51.962;8.560;2023-12-04T15:25:56;12.65;;;7.75;;
31095;SDS011;17749;51.962;8.560;2023-12-04T15:28:23;11.43;;;6.15;;
31095;SDS011;17749;51.962;8.560;2023-12-04T15:30:49;11.43;;;7.53;;
31095;SDS011;17749;51.962;8.560;2023-12-04T15:33:17;11.63;;;6.13;;
31095;SDS011;17749;51.962;8.560;2023-12-04T15:35:44;14.57;;;8.65;;
31095;SDS011;17749;51.962;8.560;2023-12-04T15:38:11;12.35;;;7.00;;
31095;SDS011;17749;51.962;8.560;2023-12-04T15:40:38;13.55;;;6.25;;
31095;SDS011;17749;51.962;8.560;2023-12-04T15:43:05;15.77;;;7.50;;
31095;SDS011;17749;51.962;8.560;2023-12-04T15:45:33;13.93;;;6.78;;
31095;SDS011;17749;51.962;8.560;2023-12-04T15:48:00;13.00;;;7.60;;
31095;SDS011;17749;51.962;8.560;2023-12-04T15:50:27;20.40;;;13.30;;
31095;SDS011;17749;51.962;8.560;2023-12-04T15:52:58;14.88;;;8.13;;
31095;SDS011;17749;51.962;8.560;2023-12-04T15:55:26;14.55;;;6.53;;
31095;SDS011;17749;51.962;8.560;2023-12-04T15:57:53;12.15;;;6.30;;
31095;SDS011;17749;51.962;8.560;2023-12-04T16:02:49;17.35;;;9.25;;
31095;SDS011;17749;51.962;8.560;2023-12-04T16:05:16;12.75;;;6.80;;
31095;SDS011;17749;51.962;8.560;2023-12-04T16:07:44;14.68;;;7.38;;
31095;SDS011;17749;51.962;8.560;2023-12-04T16:10:12;17.42;;;7.05;;
31095;SDS011;17749;51.962;8.560;2023-12-04T16:12:42;12.45;;;6.35;;
31095;SDS011;17749;51.962;8.560;2023-12-04T16:15:10;12.98;;;7.65;;
31095;SDS011;17749;51.962;8.560;2023-12-04T16:17:37;14.82;;;7.63;;
31095;SDS011;17749;51.962;8.560;2023-12-04T16:20:05;15.77;;;6.28;;
31095;SDS011;17749;51.962;8.560;2023-12-04T16:22:40;16.73;;;7.53;;
31095;SDS011;17749;51.962;8.560;2023-12-04T16:25:10;32.40;;;8.88;;
31095;SDS011;17749;51.962;8.560;2023-12-04T16:27:42;14.10;;;6.95;;
31095;SDS011;17749;51.962;8.560;2023-12-04T16:30:11;15.52;;;6.82;;
31095;SDS011;17749;51.962;8.560;2023-12-04T16:32:39;13.70;;;7.03;;
31095;SDS011;17749;51.962;8.560;2023-12-04T16:35:07;14.77;;;6.70;;
31095;SDS011;17749;51.962;8.560;2023-12-04T16:37:37;12.45;;;7.20;;
31095;SDS011;17749;51.962;8.560;2023-12-04T16:40:07;13.48;;;6.35;;
31095;SDS011;17749;51.962;8.560;2023-12-04T16:42:35;13.63;;;6.05;;
31095;SDS011;17749;51.962;8.560;2023-12-04T16:45:03;12.80;;;6.22;;
31095;SDS011;17749;51.962;8.560;2023-12-04T16:47:30;12.38;;;6.68;;
31095;SDS011;17749;51.962;8.560;2023-12-04T16:49:58;19.92;;;8.82;;
31095;SDS011;17749;51.962;8.560;2023-12-04T16:52:25;17.83;;;8.55;;
31095;SDS011;17749;51.962;8.560;2023-12-04T16:54:54;13.43;;;6.38;;
31095;SDS011;17749;51.962;8.560;2023-12-04T16:57:21;12.90;;;6.10;;
31095;SDS011;17749;51.962;8.560;2023-12-04T16:59:48;12.13;;;6.30;;
31095;SDS011;17749;51.962;8.560;2023-12-04T17:02:18;11.57;;;6.03;;
31095;SDS011;17749;51.962;8.560;2023-12-04T17:04:45;10.80;;;5.45;;
31095;SDS011;17749;51.962;8.560;2023-12-04T17:07:13;10.88;;;5.28;;
31095;SDS011;17749;51.962;8.560;2023-12-04T17:09:40;13.45;;;7.30;;
31095;SDS011;17749;51.962;8.560;2023-12-04T17:12:07;11.98;;;5.82;;
31095;SDS011;17749;51.962;8.560;2023-12-04T17:14:34;10.70;;;5.47;;
31095;SDS011;17749;51.962;8.560;2023-12-04T17:17:01;12.00;;;6.22;;
31095;SDS011;17749;51.962;8.560;2023-12-04T17:19:28;10.45;;;5.18;;
31095;SDS011;17749;51.962;8.560;2023-12-04T17:21:58;11.43;;;6.32;;
31095;SDS011;17749;51.962;8.560;2023-12-04T17:24:26;12.43;;;6.13;;
31095;SDS011;17749;51.962;8.560;2023-12-04T17:26:53;11.65;;;5.82;;
31095;SDS011;17749;51.962;8.560;2023-12-04T17:29:20;9.80;;;4.55;;
31095;SDS011;17749;51.962;8.560;2023-12-04T17:31:49;11.93;;;6.25;;
31095;SDS011;17749;51.962;8.560;2023-12-04T17:34:17;11.80;;;5.80;;
31095;SDS011;17749;51.962;8.560;2023-12-04T17:36:44;11.95;;;6.05;;
31095;SDS011;17749;51.962;8.560;2023-12-04T17:39:12;12.30;;;5.85;;
31095;SDS011;17749;51.962;8.560;2023-12-04T17:41:43;12.68;;;5.30;;
31095;SDS011;17749;51.962;8.560;2023-12-04T17:44:11;12.27;;;5.75;;
31095;SDS011;17749;51.962;8.560;2023-12-04T17:46:39;10.20;;;4.68;;
31095;SDS011;17749;51.962;8.560;2023-12-04T17:49:06;10.20;;;4.68;;
31095;SDS011;17749;51.962;8.560;2023-12-04T17:51:33;10.80;;;5.90;;
31095;SDS011;17749;51.962;8.560;2023-12-04T17:54:00;11.85;;;5.18;;
31095;SDS011;17749;51.962;8.560;2023-12-04T17:56:27;11.98;;;5.85;;
31095;SDS011;17749;51.962;8.560;2023-12-04T17:58:54;11.30;;;6.05;;
31095;SDS011;17749;51.962;8.560;2023-12-04T18:01:21;9.93;;;5.78;;
31095;SDS011;17749;51.962;8.560;2023-12-04T18:03:48;11.93;;;5.95;;
31095;SDS011;17749;51.962;8.560;2023-12-04T18:06:24;12.07;;;5.85;;
31095;SDS011;17749;51.962;8.560;2023-12-04T18:08:52;13.43;;;5.78;;
31095;SDS011;17749;51.962;8.560;2023-12-04T18:11:19;13.25;;;5.72;;
31095;SDS011;17749;51.962;8.560;2023-12-04T18:13:46;15.48;;;5.85;;
31095;SDS011;17749;51.962;8.560;2023-12-04T18:16:14;9.13;;;5.10;;
31095;SDS011;17749;51.962;8.560;2023-12-04T18:18:42;11.57;;;5.60;;
31095;SDS011;17749;51.962;8.560;2023-12-04T18:21:28;10.93;;;5.28;;
31095;SDS011;17749;51.962;8.560;2023-12-04T18:23:56;7.78;;;5.00;;
31095;SDS011;17749;51.962;8.560;2023-12-04T18:28:58;13.73;;;6.30;;
31095;SDS011;17749;51.962;8.560;2023-12-04T18:31:35;14.98;;;7.35;;
31095;SDS011;17749;51.962;8.560;2023-12-04T18:34:18;16.33;;;6.82;;
31095;SDS011;17749;51.962;8.560;2023-12-04T18:37:04;15.23;;;7.05;;
31095;SDS011;17749;51.962;8.560;2023-12-04T18:39:56;14.00;;;6.85;;
31095;SDS011;17749;51.962;8.560;2023-12-04T18:42:38;16.48;;;7.85;;
31095;SDS011;17749;51.962;8.560;2023-12-04T18:48:00;13.93;;;6.75;;
31095;SDS011;17749;51.962;8.560;2023-12-04T18:50:32;15.50;;;7.93;;
31095;SDS011;17749;51.962;8.560;2023-12-04T18:53:01;14.63;;;7.63;;
31095;SDS011;17749;51.962;8.560;2023-12-04T18:55:40;15.88;;;7.53;;
31095;SDS011;17749;51.962;8.560;2023-12-04T18:58:21;16.33;;;7.55;;
31095;SDS011;17749;51.962;8.560;2023-12-04T19:01:04;15.75;;;8.48;;
31095;SDS011;17749;51.962;8.560;2023-12-04T19:03:45;15.55;;;7.97;;
31095;SDS011;17749;51.962;8.560;2023-12-04T19:06:28;18.00;;;7.28;;
31095;SDS011;17749;51.962;8.560;2023-12-04T19:09:14;16.70;;;7.63;;
31095;SDS011;17749;51.962;8.560;2023-12-04T19:11:46;12.57;;;6.80;;
31095;SDS011;17749;51.962;8.560;2023-12-04T19:14:27;17.92;;;7.88;;
31095;SDS011;17749;51.962;8.560;2023-12-04T19:16:55;15.32;;;6.85;;
31095;SDS011;17749;51.962;8.560;2023-12-04T19:19:22;16.02;;;8.15;;
31095;SDS011;17749;51.962;8.560;2023-12-04T19:21:49;12.13;;;6.57;;
31095;SDS011;17749;51.962;8.560;2023-12-04T19:24:16;17.00;;;8.60;;
31095;SDS011;17749;51.962;8.560;2023-12-04T19:26:43;16.15;;;8.48;;
31095;SDS011;17749;51.962;8.560;2023-12-04T19:29:10;16.77;;;7.45;;
31095;SDS011;17749;51.962;8.560;2023-12-04T19:31:41;12.10;;;7.00;;
31095;SDS011;17749;51.962;8.560;2023-12-04T19:34:08;17.02;;;7.50;;
31095;SDS011;17749;51.962;8.560;2023-12-04T19:36:35;13.88;;;6.45;;
31095;SDS011;17749;51.962;8.560;2023-12-04T19:39:01;15.27;;;7.07;;
31095;SDS011;17749;51.962;8.560;2023-12-04T19:41:30;13.15;;;7.05;;
31095;SDS011;17749;51.962;8.560;2023-12-04T19:43:58;13.60;;;6.63;;
31095;SDS011;17749;51.962;8.560;2023-12-04T19:46:25;14.55;;;7.55;;
31095;SDS011;17749;51.962;8.560;2023-12-04T19:48:52;14.63;;;8.00;;
31095;SDS011;17749;51.962;8.560;2023-12-04T19:51:20;15.93;;;8.63;;
31095;SDS011;17749;51.962;8.560;2023-12-04T19:53:47;15.35;;;7.78;;
31095;SDS011;17749;51.962;8.560;2023-12-04T19:56:14;12.77;;;6.82;;
31095;SDS011;17749;51.962;8.560;2023-12-04T19:58:41;12.27;;;6.40;;
31095;SDS011;17749;51.962;8.560;2023-12-04T20:01:08;14.90;;;7.40;;
31095;SDS011;17749;51.962;8.560;2023-12-04T20:03:35;15.85;;;7.35;;
31095;SDS011;17749;51.962;8.560;2023-12-04T20:06:02;14.15;;;6.57;;
31095;SDS011;17749;51.962;8.560;2023-12-04T20:08:30;14.48;;;7.78;;
31095;SDS011;17749;51.962;8.560;2023-12-04T20:10:57;17.27;;;7.70;;
31095;SDS011;17749;51.962;8.560;2023-12-04T20:13:24;14.82;;;6.57;;
31095;SDS011;17749;51.962;8.560;2023-12-04T20:15:51;15.30;;;8.02;;
31095;SDS011;17749;51.962;8.560;2023-12-04T20:18:18;13.45;;;7.05;;
31095;SDS011;17749;51.962;8.560;2023-12-04T20:20:45;13.23;;;6.60;;
31095;SDS011;17749;51.962;8.560;2023-12-04T20:23:12;12.57;;;6.55;;
31095;SDS011;17749;51.962;8.560;2023-12-04T20:25:41;15.43;;;7.25;;
31095;SDS011;17749;51.962;8.560;2023-12-04T20:28:09;19.15;;;7.60;;
31095;SDS011;17749;51.962;8.560;2023-12-04T20:30:37;14.32;;;7.32;;
31095;SDS011;17749;51.962;8.560;2023-12-04T20:33:04;13.02;;;7.03;;
31095;SDS011;17749;51.962;8.560;2023-12-04T20:35:32;14.27;;;7.00;;
31095;SDS011;17749;51.962;8.560;2023-12-04T20:38:00;13.93;;;6.97;;
31095;SDS011;17749;51.962;8.560;2023-12-04T20:40:27;15.82;;;7.72;;
31095;SDS011;17749;51.962;8.560;2023-12-04T20:42:54;14.70;;;7.43;;
31095;SDS011;17749;51.962;8.560;2023-12-04T20:45:25;13.63;;;6.60;;
31095;SDS011;17749;51.962;8.560;2023-12-04T20:47:55;12.73;;;6.90;;
31095;SDS011;17749;51.962;8.560;2023-12-04T20:50:23;12.57;;;6.55;;
31095;SDS011;17749;51.962;8.560;2023-12-04T20:52:51;13.35;;;6.90;;
31095;SDS011;17749;51.962;8.560;2023-12-04T20:55:18;11.65;;;7.05;;
31095;SDS011;17749;51.962;8.560;2023-12-04T20:57:45;11.95;;;6.18;;
31095;SDS011;17749;51.962;8.560;2023-12-04T21:00:12;14.15;;;6.55;;
31095;SDS011;17749;51.962;8.560;2023-12-04T21:02:40;12.15;;;6.38;;
31095;SDS011;17749;51.962;8.560;2023-12-04T21:05:07;15.15;;;7.07;;
31095;SDS011;17749;51.962;8.560;2023-12-04T21:07:35;11.80;;;6.35;;
31095;SDS011;17749;51.962;8.560;2023-12-04T21:10:02;15.52;;;7.40;;
31095;SDS011;17749;51.962;8.560;2023-12-04T21:12:31;12.50;;;7.05;;
31095;SDS011;17749;51.962;8.560;2023-12-04T21:14:59;13.00;;;7.22;;
31095;SDS011;17749;51.962;8.560;2023-12-04T21:17:26;17.27;;;7.53;;
31095;SDS011;17749;51.962;8.560;2023-12-04T21:19:53;17.70;;;6.68;;
31095;SDS011;17749;51.962;8.560;2023-12-04T21:22:20;11.45;;;6.93;;
31095;SDS011;17749;51.962;8.560;2023-12-04T21:24:47;14.55;;;7.25;;
31095;SDS011;17749;51.962;8.560;2023-12-04T21:27:16;14.88;;;6.63;;
31095;SDS011;17749;51.962;8.560;2023-12-04T21:29:46;11.75;;;7.25;;
